createdAt,value
2022-12-14T00:00:49.001Z,20.38
2022-12-14T00:03:16.794Z,18.85
2022-12-14T00:05:44.862Z,20.33
2022-12-14T00:08:15.057Z,20.50
2022-12-14T00:10:42.963Z,21.02
2022-12-14T00:13:12.911Z,24.02
2022-12-14T00:15:39.675Z,20.73
2022-12-14T00:18:06.726Z,19.42
2022-12-14T00:20:34.516Z,20.37
2022-12-14T00:23:01.289Z,20.77
2022-12-14T00:25:28.032Z,24.10
2022-12-14T00:27:55.312Z,23.85
2022-12-14T00:30:22.280Z,19.33
2022-12-14T00:32:49.090Z,23.73
2022-12-14T00:35:17.693Z,21.50
2022-12-14T00:37:45.781Z,22.15
2022-12-14T00:40:16.282Z,23.05
2022-12-14T00:42:43.164Z,20.33
2022-12-14T00:45:10.594Z,21.40
2022-12-14T00:47:40.888Z,22.02
2022-12-14T00:50:08.373Z,24.85
2022-12-14T00:52:35.353Z,21.17
2022-12-14T00:55:02.232Z,21.55
2022-12-14T00:57:29.824Z,21.30
2022-12-14T00:59:56.675Z,22.45
2022-12-14T01:02:23.795Z,20.27
2022-12-14T01:04:50.684Z,21.98
2022-12-14T01:07:17.474Z,21.08
2022-12-14T01:09:44.225Z,21.90
2022-12-14T01:12:11.047Z,20.77
2022-12-14T01:14:37.956Z,19.30
2022-12-14T01:17:05.358Z,19.20
2022-12-14T01:19:33.406Z,19.55
2022-12-14T01:22:00.722Z,19.87
2022-12-14T01:24:27.477Z,21.45
2022-12-14T01:26:54.397Z,20.42
2022-12-14T01:29:21.302Z,20.02
2022-12-14T01:31:48.984Z,20.70
2022-12-14T01:34:16.814Z,23.20
2022-12-14T01:36:43.660Z,20.17
2022-12-14T01:39:15.109Z,19.40
2022-12-14T01:41:45.874Z,22.45
2022-12-14T01:44:12.627Z,18.77
2022-12-14T01:46:52.469Z,19.70
2022-12-14T01:49:37.505Z,20.98
2022-12-14T01:52:21.788Z,19.38
2022-12-14T01:54:57.267Z,19.60
2022-12-14T01:57:31.158Z,17.02
2022-12-14T02:00:03.766Z,19.23
2022-12-14T02:02:34.798Z,18.00
2022-12-14T02:05:02.970Z,21.90
2022-12-14T02:07:31.516Z,18.88
2022-12-14T02:10:02.484Z,19.25
2022-12-14T02:12:52.921Z,22.47
2022-12-14T02:15:19.745Z,18.15
2022-12-14T02:17:48.421Z,18.63
2022-12-14T02:20:16.941Z,20.05
2022-12-14T02:23:28.529Z,20.60
2022-12-14T02:26:35.989Z,19.00
2022-12-14T02:29:40.163Z,20.23
2022-12-14T02:32:09.632Z,17.98
2022-12-14T02:34:54.968Z,20.40
2022-12-14T02:37:27.791Z,20.33
2022-12-14T02:40:19.634Z,20.33
2022-12-14T02:43:01.640Z,18.30
2022-12-14T02:45:40.063Z,18.52
2022-12-14T02:48:13.571Z,20.08
2022-12-14T02:50:40.414Z,18.77
2022-12-14T02:53:21.826Z,21.70
2022-12-14T02:55:54.334Z,18.77
2022-12-14T02:58:27.175Z,22.50
2022-12-14T03:00:56.602Z,19.58
2022-12-14T03:03:23.546Z,20.02
2022-12-14T03:06:16.913Z,21.90
2022-12-14T03:08:46.474Z,19.38
2022-12-14T03:11:21.829Z,21.08
2022-12-14T03:14:01.095Z,20.52
2022-12-14T03:16:33.842Z,18.73
2022-12-14T03:19:22.844Z,18.97
2022-12-14T03:21:56.733Z,22.67
2022-12-14T03:24:30.077Z,19.17
2022-12-14T03:27:02.631Z,19.30
2022-12-14T03:29:34.994Z,20.70
2022-12-14T03:32:15.583Z,22.50
2022-12-14T03:35:01.708Z,20.23
2022-12-14T03:37:52.947Z,19.50
2022-12-14T03:40:29.573Z,19.05
2022-12-14T03:43:14.658Z,17.77
2022-12-14T03:46:12.946Z,20.73
2022-12-14T03:48:51.923Z,19.17
2022-12-14T03:51:44.557Z,22.60
2022-12-14T03:54:26.967Z,20.77
2022-12-14T03:57:08.197Z,21.65
2022-12-14T04:00:16.107Z,20.60
2022-12-14T04:02:56.664Z,19.27
2022-12-14T04:05:49.731Z,21.90
2022-12-14T04:08:38.759Z,20.48
2022-12-14T04:11:08.922Z,21.42
2022-12-14T04:13:40.520Z,21.13
2022-12-14T04:16:13.703Z,23.52
2022-12-14T04:18:44.784Z,21.00
2022-12-14T04:21:25.912Z,19.73
2022-12-14T04:23:59.832Z,21.88
2022-12-14T04:26:33.821Z,19.57
2022-12-14T04:29:07.174Z,22.52
2022-12-14T04:31:37.302Z,19.25
2022-12-14T04:34:07.790Z,21.00
2022-12-14T04:36:54.687Z,20.08
2022-12-14T04:39:59.509Z,20.20
2022-12-14T04:42:34.492Z,21.25
2022-12-14T04:45:10.946Z,22.95
2022-12-14T04:47:45.200Z,19.70
2022-12-14T04:50:25.044Z,21.23
2022-12-14T04:52:58.451Z,20.90
2022-12-14T04:55:49.093Z,24.23
2022-12-14T04:58:21.878Z,18.83
2022-12-14T05:01:10.603Z,19.30
2022-12-14T05:04:12.154Z,22.67
2022-12-14T05:06:45.637Z,22.73
2022-12-14T05:09:24.166Z,21.58
2022-12-14T05:12:10.797Z,23.98
2022-12-14T05:14:44.169Z,20.08
2022-12-14T05:17:11.653Z,24.08
2022-12-14T05:19:48.745Z,22.10
2022-12-14T05:22:18.262Z,21.95
2022-12-14T05:24:46.481Z,21.83
2022-12-14T05:27:15.930Z,21.73
2022-12-14T05:29:44.503Z,20.70
2022-12-14T05:32:15.487Z,21.30
2022-12-14T05:34:44.158Z,22.55
2022-12-14T05:37:17.988Z,24.15
2022-12-14T05:39:46.586Z,21.55
2022-12-14T05:42:14.097Z,20.42
2022-12-14T05:44:41.093Z,21.43
2022-12-14T05:47:08.894Z,21.40
2022-12-14T05:49:37.379Z,23.60
2022-12-14T05:52:04.914Z,22.95
2022-12-14T05:54:31.709Z,22.35
2022-12-14T05:56:58.629Z,26.93
2022-12-14T05:59:25.369Z,21.42
2022-12-14T06:01:52.278Z,21.02
2022-12-14T06:04:19.339Z,18.67
2022-12-14T06:06:46.747Z,23.55
2022-12-14T06:09:15.101Z,24.07
2022-12-14T06:11:43.151Z,21.58
2022-12-14T06:14:11.451Z,20.83
2022-12-14T06:16:42.525Z,27.58
2022-12-14T06:19:10.471Z,24.15
2022-12-14T06:21:38.942Z,19.83
2022-12-14T06:24:06.147Z,22.13
2022-12-14T06:26:35.469Z,21.23
2022-12-14T06:29:02.711Z,25.77
2022-12-14T06:31:31.670Z,22.35
2022-12-14T06:34:03.472Z,21.60
2022-12-14T06:36:35.473Z,22.80
2022-12-14T06:39:06.374Z,20.27
2022-12-14T06:41:33.567Z,20.77
2022-12-14T06:44:05.115Z,24.30
2022-12-14T06:46:36.672Z,19.87
2022-12-14T06:49:05.516Z,20.00
2022-12-14T06:51:38.018Z,21.73
2022-12-14T06:54:05.016Z,19.45
2022-12-14T06:56:31.846Z,20.02
2022-12-14T06:58:59.218Z,22.30
2022-12-14T07:01:26.296Z,20.70
2022-12-14T07:03:56.192Z,21.13
2022-12-14T07:06:25.146Z,19.98
2022-12-14T07:08:56.934Z,20.92
2022-12-14T07:11:25.183Z,19.97
2022-12-14T07:13:52.579Z,17.88
2022-12-14T07:16:22.280Z,20.02
2022-12-14T07:18:49.708Z,19.77
2022-12-14T07:21:18.720Z,20.58
2022-12-14T07:23:47.298Z,24.13
2022-12-14T07:26:17.221Z,20.33
2022-12-14T07:28:44.874Z,20.58
2022-12-14T07:31:20.119Z,22.83
2022-12-14T07:33:47.157Z,21.95
2022-12-14T07:36:19.818Z,22.60
2022-12-14T07:38:49.212Z,21.38
2022-12-14T07:41:23.150Z,18.98
2022-12-14T07:43:51.334Z,22.58
2022-12-14T07:46:21.797Z,21.85
2022-12-14T07:48:54.178Z,21.07
2022-12-14T07:51:23.762Z,20.75
2022-12-14T07:53:51.343Z,21.92
2022-12-14T07:56:23.904Z,20.77
2022-12-14T07:58:51.843Z,21.23
2022-12-14T08:01:22.330Z,21.53
2022-12-14T08:03:52.623Z,20.88
2022-12-14T08:06:21.497Z,19.83
2022-12-14T08:08:49.290Z,21.13
2022-12-14T08:11:16.525Z,22.55
2022-12-14T08:13:43.358Z,23.23
2022-12-14T08:16:12.903Z,20.42
2022-12-14T08:18:40.527Z,23.63
2022-12-14T08:21:09.047Z,21.20
2022-12-14T08:23:36.605Z,19.92
2022-12-14T08:26:05.626Z,22.17
2022-12-14T08:28:33.826Z,21.40
2022-12-14T08:31:11.015Z,22.83
2022-12-14T08:33:39.433Z,22.58
2022-12-14T08:36:11.931Z,21.50
2022-12-14T08:38:39.964Z,21.07
2022-12-14T08:41:08.891Z,23.95
2022-12-14T08:43:36.638Z,21.15
2022-12-14T08:46:04.061Z,22.10
2022-12-14T08:48:30.884Z,23.15
2022-12-14T08:51:06.132Z,23.10
2022-12-14T08:53:34.009Z,21.30
2022-12-14T08:56:05.610Z,20.70
2022-12-14T08:58:33.261Z,21.67
2022-12-14T09:01:11.730Z,21.67
2022-12-14T09:03:40.737Z,20.93
2022-12-14T09:06:10.012Z,22.45
2022-12-14T09:08:37.157Z,26.65
2022-12-14T09:11:05.640Z,21.67
2022-12-14T09:13:33.861Z,22.38
2022-12-14T09:16:08.508Z,22.73
2022-12-14T09:18:35.355Z,22.13
2022-12-14T09:21:02.650Z,22.00
2022-12-14T09:23:31.127Z,22.42
2022-12-14T09:26:14.432Z,24.52
2022-12-14T09:28:45.591Z,24.47
2022-12-14T09:31:14.579Z,24.63
2022-12-14T09:33:41.433Z,22.80
2022-12-14T09:36:14.690Z,24.52
2022-12-14T09:38:50.621Z,23.20
2022-12-14T09:41:33.514Z,26.37
2022-12-14T09:44:41.622Z,23.40
2022-12-14T09:47:18.336Z,24.92
2022-12-14T09:49:48.242Z,25.55
2022-12-14T09:52:34.549Z,22.73
2022-12-14T09:55:06.420Z,22.00
2022-12-14T09:57:38.014Z,23.45
2022-12-14T10:00:13.935Z,25.00
2022-12-14T10:03:06.971Z,25.48
2022-12-14T10:05:48.912Z,24.20
2022-12-14T10:08:29.619Z,25.97
2022-12-14T10:11:07.148Z,22.77
2022-12-14T10:13:47.883Z,26.20
2022-12-14T10:16:56.112Z,25.10
2022-12-14T10:19:46.143Z,23.02
2022-12-14T10:22:18.951Z,28.47
2022-12-14T10:25:20.140Z,23.55
2022-12-14T10:28:12.929Z,26.92
2022-12-14T10:30:43.160Z,24.20
2022-12-14T10:33:15.769Z,26.52
2022-12-14T10:35:55.692Z,24.37
2022-12-14T10:38:37.209Z,26.13
2022-12-14T10:41:16.116Z,29.50
2022-12-14T10:44:01.005Z,25.88
2022-12-14T10:46:44.993Z,24.83
2022-12-14T10:49:49.314Z,26.73
2022-12-14T10:52:19.133Z,26.52
2022-12-14T10:55:15.254Z,23.73
2022-12-14T10:57:42.196Z,25.60
2022-12-14T11:00:22.921Z,24.38
2022-12-14T11:02:54.702Z,25.90
2022-12-14T11:05:39.427Z,26.30
2022-12-14T11:08:07.457Z,24.92
2022-12-14T11:10:35.901Z,26.30
2022-12-14T11:13:14.738Z,26.73
2022-12-14T11:15:45.410Z,28.67
2022-12-14T11:18:12.322Z,23.67
2022-12-14T11:21:05.709Z,27.33
2022-12-14T11:23:41.520Z,25.98
2022-12-14T11:26:15.303Z,23.17
2022-12-14T11:28:49.910Z,25.77
2022-12-14T11:31:20.570Z,25.23
2022-12-14T11:33:51.035Z,24.50
2022-12-14T11:36:33.268Z,27.48
2022-12-14T11:39:21.615Z,25.52
2022-12-14T11:42:01.375Z,23.43
2022-12-14T11:44:32.742Z,25.60
2022-12-14T11:46:59.424Z,25.77
2022-12-14T11:49:35.263Z,26.20
2022-12-14T11:52:05.031Z,27.17
2022-12-14T11:54:36.591Z,27.33
2022-12-14T11:57:08.272Z,26.02
2022-12-14T11:59:42.515Z,26.33
2022-12-14T12:02:17.547Z,28.15
2022-12-14T12:04:49.937Z,25.83
2022-12-14T12:07:30.817Z,25.77
2022-12-14T12:10:12.339Z,26.88
2022-12-14T12:12:54.008Z,26.08
2022-12-14T12:15:36.694Z,27.90
2022-12-14T12:18:13.407Z,25.23
2022-12-14T12:20:49.111Z,25.33
2022-12-14T12:23:22.801Z,27.25
2022-12-14T12:25:53.004Z,28.15
2022-12-14T12:28:22.862Z,25.98
2022-12-14T12:30:53.018Z,27.60
2022-12-14T12:33:26.473Z,25.03
2022-12-14T12:35:55.614Z,25.25
2022-12-14T12:38:37.898Z,27.95
2022-12-14T12:41:29.721Z,30.52
2022-12-14T12:44:23.173Z,24.83
2022-12-14T12:47:38.201Z,25.03
2022-12-14T12:50:04.437Z,27.02
2022-12-14T12:52:36.435Z,27.90
2022-12-14T12:55:10.830Z,26.95
2022-12-14T12:57:45.234Z,27.63
2022-12-14T13:00:19.310Z,27.27
2022-12-14T13:03:22.735Z,24.40
2022-12-14T13:05:51.192Z,29.23
2022-12-14T13:08:28.826Z,30.23
2022-12-14T13:13:52.008Z,28.23
2022-12-14T13:16:38.083Z,28.00
2022-12-14T13:19:50.634Z,29.33
2022-12-14T13:22:32.355Z,32.47
2022-12-14T13:25:06.279Z,25.20
2022-12-14T13:27:39.185Z,29.57
2022-12-14T13:30:09.001Z,30.13
2022-12-14T13:33:07.495Z,30.25
2022-12-14T13:36:06.652Z,29.15
2022-12-14T13:38:51.713Z,29.23
2022-12-14T13:41:49.805Z,26.53
2022-12-14T13:44:16.515Z,28.35
2022-12-14T13:46:43.708Z,26.48
2022-12-14T13:49:22.955Z,29.00
2022-12-14T13:51:51.918Z,28.77
2022-12-14T13:54:37.876Z,29.17
2022-12-14T13:57:09.404Z,29.08
2022-12-14T13:59:41.012Z,30.50
2022-12-14T14:02:27.976Z,31.95
2022-12-14T14:05:16.519Z,28.63
2022-12-14T14:07:52.146Z,29.20
2022-12-14T14:10:37.041Z,29.80
2022-12-14T14:13:22.179Z,34.00
2022-12-14T14:16:19.337Z,29.33
2022-12-14T14:19:09.150Z,32.08
2022-12-14T14:22:25.845Z,27.77
2022-12-14T14:24:57.631Z,28.20
2022-12-14T14:27:39.646Z,28.45
2022-12-14T14:30:28.623Z,28.30
2022-12-14T14:33:03.012Z,28.27
2022-12-14T14:35:40.616Z,28.50
2022-12-14T14:38:26.033Z,29.25
2022-12-14T14:43:54.198Z,28.10
2022-12-14T14:46:34.574Z,30.40
2022-12-14T14:49:02.040Z,28.80
2022-12-14T14:51:32.964Z,28.65
2022-12-14T14:54:44.823Z,30.45
2022-12-14T14:57:53.394Z,30.48
2022-12-14T15:00:20.226Z,32.03
2022-12-14T15:02:50.364Z,28.87
2022-12-14T15:05:43.391Z,29.63
2022-12-14T15:08:39.790Z,31.23
2022-12-14T15:11:17.029Z,29.80
2022-12-14T15:13:53.329Z,29.70
2022-12-14T15:16:30.666Z,30.20
2022-12-14T15:19:20.280Z,32.63
2022-12-14T15:21:50.369Z,30.75
2022-12-14T15:24:17.372Z,31.55
2022-12-14T15:26:44.177Z,29.73
2022-12-14T15:29:18.568Z,30.10
2022-12-14T15:31:46.020Z,31.08
2022-12-14T15:34:18.483Z,29.73
2022-12-14T15:36:45.561Z,28.10
2022-12-14T15:39:37.871Z,30.90
2022-12-14T15:42:11.550Z,30.33
2022-12-14T15:44:39.395Z,30.70
2022-12-14T15:47:06.133Z,30.17
2022-12-14T15:49:32.824Z,32.08
2022-12-14T15:51:59.843Z,33.83
2022-12-14T15:54:28.137Z,32.03
2022-12-14T15:56:58.014Z,31.10
2022-12-14T15:59:32.006Z,31.80
2022-12-14T16:02:13.633Z,30.30
2022-12-14T16:04:41.615Z,30.80
2022-12-14T16:07:17.066Z,32.33
2022-12-14T16:09:50.014Z,31.80
2022-12-14T16:12:25.290Z,30.90
2022-12-14T16:14:56.549Z,30.75
2022-12-14T16:17:29.581Z,32.42
2022-12-14T16:20:16.742Z,30.60
2022-12-14T16:22:57.420Z,29.48
2022-12-14T16:25:24.378Z,28.67
2022-12-14T16:27:52.323Z,33.42
2022-12-14T16:30:34.034Z,30.80
2022-12-14T16:33:07.252Z,30.73
2022-12-14T16:35:36.557Z,33.13
2022-12-14T16:38:15.283Z,31.58
2022-12-14T16:40:54.013Z,33.92
2022-12-14T16:43:33.112Z,32.85
2022-12-14T16:46:00.567Z,31.30
2022-12-14T16:48:28.706Z,34.67
2022-12-14T16:51:33.016Z,32.65
2022-12-14T16:54:20.440Z,31.15
2022-12-14T16:56:48.323Z,35.45
2022-12-14T16:59:26.007Z,34.43
2022-12-14T17:01:53.678Z,33.92
2022-12-14T17:04:21.931Z,34.92
2022-12-14T17:06:56.669Z,33.95
2022-12-14T17:09:26.317Z,36.35
2022-12-14T17:11:58.099Z,38.67
2022-12-14T17:14:25.066Z,39.95
2022-12-14T17:17:01.722Z,34.83
2022-12-14T17:19:36.182Z,37.00
2022-12-14T17:22:12.850Z,36.03
2022-12-14T17:24:40.189Z,37.90
2022-12-14T17:27:07.059Z,36.00
2022-12-14T17:29:34.132Z,36.15
2022-12-14T17:32:03.505Z,35.25
2022-12-14T17:34:30.874Z,36.83
2022-12-14T17:36:58.076Z,34.50
2022-12-14T17:39:28.212Z,37.90
2022-12-14T17:41:57.094Z,33.22
2022-12-14T17:44:24.367Z,37.50
2022-12-14T17:46:52.936Z,40.50
2022-12-14T17:49:20.786Z,43.47
2022-12-14T17:51:48.746Z,41.13
2022-12-14T17:54:19.325Z,42.13
2022-12-14T17:56:47.067Z,43.08
2022-12-14T17:59:16.168Z,38.70
2022-12-14T18:01:44.353Z,39.57
2022-12-14T18:04:11.688Z,41.13
2022-12-14T18:06:39.412Z,40.58
2022-12-14T18:09:09.231Z,39.83
2022-12-14T18:11:49.333Z,39.70
2022-12-14T18:14:25.383Z,42.87
2022-12-14T18:16:53.002Z,39.15
2022-12-14T18:19:23.031Z,40.15
2022-12-14T18:21:50.988Z,40.20
2022-12-14T18:24:24.159Z,42.25
2022-12-14T18:26:55.114Z,39.73
2022-12-14T18:29:23.316Z,39.40
2022-12-14T18:31:52.108Z,42.20
2022-12-14T18:34:19.606Z,41.67
2022-12-14T18:36:47.247Z,39.70
2022-12-14T18:39:14.660Z,40.77
2022-12-14T18:41:43.608Z,39.85
2022-12-14T18:44:12.393Z,42.72
2022-12-14T18:46:40.433Z,41.30
2022-12-14T18:49:08.508Z,39.20
2022-12-14T18:51:37.586Z,44.40
2022-12-14T18:54:05.440Z,41.83
2022-12-14T18:56:33.747Z,42.42
2022-12-14T18:59:01.848Z,41.92
2022-12-14T19:01:31.163Z,42.33
2022-12-14T19:03:59.096Z,44.77
2022-12-14T19:06:43.898Z,43.28
2022-12-14T19:09:13.917Z,43.00
2022-12-14T19:11:43.560Z,42.83
2022-12-14T19:14:13.019Z,46.80
2022-12-14T19:16:41.144Z,42.33
2022-12-14T19:19:09.077Z,41.47
2022-12-14T19:21:40.116Z,40.58
2022-12-14T19:24:08.116Z,42.10
2022-12-14T19:26:39.095Z,41.42
2022-12-14T19:29:10.296Z,41.70
2022-12-14T19:31:38.534Z,43.22
2022-12-14T19:34:06.694Z,42.00
2022-12-14T19:36:34.815Z,43.55
2022-12-14T19:39:06.414Z,41.30
2022-12-14T19:41:38.605Z,45.63
2022-12-14T19:44:06.534Z,40.75
2022-12-14T19:46:34.855Z,43.85
2022-12-14T19:49:05.294Z,41.75
2022-12-14T19:51:33.394Z,41.70
2022-12-14T19:54:01.377Z,42.60
2022-12-14T19:56:30.309Z,39.60
2022-12-14T19:59:01.256Z,41.90
2022-12-14T20:01:29.975Z,38.35
2022-12-14T20:04:01.420Z,42.42
2022-12-14T20:06:29.418Z,41.50
2022-12-14T20:09:01.650Z,40.47
2022-12-14T20:11:29.716Z,42.50
2022-12-14T20:14:06.820Z,41.75
2022-12-14T20:16:35.436Z,38.75
2022-12-14T20:19:08.421Z,40.97
2022-12-14T20:21:36.529Z,41.63
2022-12-14T20:24:04.569Z,39.85
2022-12-14T20:26:34.279Z,43.35
2022-12-14T20:29:01.983Z,39.92
2022-12-14T20:31:32.478Z,38.67
2022-12-14T20:34:02.798Z,42.78
2022-12-14T20:36:31.502Z,38.97
2022-12-14T20:39:01.216Z,42.42
2022-12-14T20:41:30.057Z,37.97
2022-12-14T20:43:58.116Z,36.70
2022-12-14T20:46:37.937Z,39.72
2022-12-14T20:49:12.462Z,37.35
2022-12-14T20:51:40.984Z,43.67
2022-12-14T20:54:12.934Z,38.30
2022-12-14T20:56:43.377Z,42.60
2022-12-14T20:59:12.136Z,41.13
2022-12-14T21:01:41.707Z,45.88
2022-12-14T21:04:09.949Z,42.40
2022-12-14T21:06:41.982Z,45.03
2022-12-14T21:09:11.166Z,41.33
2022-12-14T21:11:47.237Z,42.35
2022-12-14T21:14:14.699Z,41.97
2022-12-14T21:16:42.203Z,41.22
2022-12-14T21:19:12.537Z,42.30
2022-12-14T21:21:41.638Z,41.53
2022-12-14T21:24:15.041Z,42.33
2022-12-14T21:26:49.185Z,40.58
2022-12-14T21:29:16.492Z,43.72
2022-12-14T21:31:45.317Z,42.78
2022-12-14T21:34:17.652Z,40.43
2022-12-14T21:36:45.142Z,40.70
2022-12-14T21:39:13.720Z,44.58
2022-12-14T21:41:41.021Z,41.42
2022-12-14T21:44:08.120Z,41.40
2022-12-14T21:46:36.119Z,42.83
2022-12-14T21:49:03.111Z,44.28
2022-12-14T21:51:29.820Z,42.20
2022-12-14T21:53:56.843Z,42.50
2022-12-14T21:56:23.591Z,44.95
2022-12-14T21:58:54.058Z,45.37
2022-12-14T22:01:21.537Z,44.80
2022-12-14T22:03:52.932Z,45.25
2022-12-14T22:06:19.753Z,42.83
2022-12-14T22:08:46.426Z,43.25
2022-12-14T22:11:13.216Z,43.93
2022-12-14T22:13:39.984Z,42.70
2022-12-14T22:16:07.203Z,40.55
2022-12-14T22:18:35.717Z,46.60
2022-12-14T22:21:04.448Z,52.35
2022-12-14T22:23:34.133Z,53.27
2022-12-14T22:26:03.107Z,42.65
2022-12-14T22:28:29.893Z,43.75
2022-12-14T22:30:56.691Z,42.65
2022-12-14T22:33:23.387Z,42.65
2022-12-14T22:35:51.161Z,45.53
2022-12-14T22:38:17.959Z,48.72
2022-12-14T22:40:44.823Z,45.60
2022-12-14T22:43:11.602Z,40.83
2022-12-14T22:45:38.443Z,44.47
2022-12-14T22:48:05.430Z,47.07
2022-12-14T22:50:32.341Z,47.67
2022-12-14T22:52:59.660Z,44.20
2022-12-14T22:55:30.325Z,43.88
2022-12-14T22:57:57.855Z,41.80
2022-12-14T23:00:24.743Z,45.73
2022-12-14T23:02:51.622Z,43.53
2022-12-14T23:05:18.783Z,44.83
2022-12-14T23:07:45.512Z,43.47
2022-12-14T23:10:12.364Z,42.58
2022-12-14T23:12:39.122Z,43.23
2022-12-14T23:15:06.751Z,41.58
2022-12-14T23:17:35.153Z,42.75
2022-12-14T23:20:04.960Z,42.25
2022-12-14T23:22:32.314Z,45.25
2022-12-14T23:24:59.080Z,40.80
2022-12-14T23:27:26.064Z,44.05
2022-12-14T23:29:52.828Z,45.00
2022-12-14T23:32:20.759Z,41.80
2022-12-14T23:34:48.344Z,42.08
2022-12-14T23:37:20.169Z,43.63
2022-12-14T23:39:48.250Z,42.65
2022-12-14T23:42:15.106Z,43.88
2022-12-14T23:44:42.010Z,41.80
2022-12-14T23:47:08.912Z,44.83
2022-12-14T23:49:35.921Z,43.67
2022-12-14T23:52:02.713Z,48.17
2022-12-14T23:54:29.570Z,46.78
2022-12-14T23:56:56.258Z,42.67
2022-12-14T23:59:29.942Z,45.83
